Time;durP1;ratioP1;P1;durP2;ratioP2;P2;SDS_P1;SDS_P2;PMS_P1;PMS_P2;Temp;Humidity;BMP_temperature;BMP_pressure;BME280_temperature;BME280_humidity;BME280_pressure;Samples;Min_cycle;Max_cycle;Signal;HPM_P1;HPM_P2
2022/03/07 00:02:28;;;;;;;29.05;16.10;;;;;;;-0.82;100.00;102125.59;7388576;19;20190;-50
2022/03/07 00:05:00;;;;;;;31.42;18.08;;;;;;;-0.78;100.00;102137.84;7394092;19;20234;-51
2022/03/07 00:07:29;;;;;;;31.33;16.42;;;;;;;-0.92;100.00;102132.91;7392332;19;20744;-51
2022/03/07 00:10:00;;;;;;;35.22;16.60;;;;;;;-0.65;100.00;102136.66;7394934;19;20138;-52
2022/03/07 00:12:35;;;;;;;33.08;16.65;;;;;;;-0.92;100.00;102137.97;7395263;19;20225;-48
2022/03/07 00:15:06;;;;;;;32.72;17.13;;;;;;;-1.07;100.00;102140.63;7395468;19;20249;-47
2022/03/07 00:17:35;;;;;;;28.98;15.88;;;;;;;-1.28;100.00;102147.63;7395025;19;20536;-51
2022/03/07 00:20:07;;;;;;;33.75;17.33;;;;;;;-0.97;100.00;102151.03;7396917;19;20123;-50
2022/03/07 00:22:36;;;;;;;34.47;17.08;;;;;;;-0.71;100.00;102147.91;7395611;19;20170;-51
2022/03/07 00:25:07;;;;;;;28.60;16.35;;;;;;;-0.58;100.00;102141.66;7390784;19;20163;-56
2022/03/07 00:27:40;;;;;;;30.85;16.27;;;;;;;-0.94;100.00;102141.97;7397138;19;20131;-54
2022/03/07 00:30:10;;;;;;;32.40;15.82;;;;;;;-1.25;100.00;102149.59;7392871;19;20127;-52
2022/03/07 00:32:40;;;;;;;26.70;14.80;;;;;;;-1.38;100.00;102149.88;7396183;19;20127;-50
2022/03/07 00:35:11;;;;;;;27.40;15.27;;;;;;;-1.37;100.00;102151.66;7391512;19;20171;-52
2022/03/07 00:37:41;;;;;;;33.47;13.55;;;;;;;-1.41;100.00;102155.47;7396383;19;20130;-50
2022/03/07 00:40:11;;;;;;;30.85;15.98;;;;;;;-1.41;100.00;102147.88;7394529;19;20142;-55
2022/03/07 00:42:43;;;;;;;25.85;14.18;;;;;;;-1.38;100.00;102149.88;7394934;19;20135;-50
2022/03/07 00:45:14;;;;;;;31.85;15.93;;;;;;;-1.33;100.00;102136.09;7391398;19;20162;-47
2022/03/07 00:47:43;;;;;;;26.65;15.07;;;;;;;-1.29;100.00;102140.75;7396975;19;20144;-48
2022/03/07 00:50:13;;;;;;;23.90;14.65;;;;;;;-1.29;100.00;102135.69;7393201;19;20601;-48
2022/03/07 00:52:42;;;;;;;26.23;15.55;;;;;;;-1.19;100.00;102134.19;7397198;19;20141;-47
2022/03/07 00:55:13;;;;;;;30.08;15.40;;;;;;;-1.29;100.00;102135.69;7394190;19;20158;-48
2022/03/07 00:57:45;;;;;;;27.58;16.08;;;;;;;-1.20;100.00;102124.75;7397311;19;20139;-51
2022/03/07 01:00:19;;;;;;;29.10;16.08;;;;;;;-1.25;100.00;102132.78;7394291;19;20613;-50
2022/03/07 01:02:49;;;;;;;31.65;15.90;;;;;;;-1.32;100.00;102120.16;7396013;19;20239;-49
2022/03/07 01:05:19;;;;;;;32.42;16.75;;;;;;;-1.35;100.00;102117.28;7391724;19;20234;-50
2022/03/07 01:07:49;;;;;;;26.02;15.23;;;;;;;-1.27;100.00;102124.09;7397594;19;20142;-52
2022/03/07 01:10:18;;;;;;;36.50;18.40;;;;;;;-1.28;100.00;102132.41;7391583;19;20127;-48
2022/03/07 01:12:51;;;;;;;33.45;17.63;;;;;;;-1.38;100.00;102127.97;7396842;19;20157;-48
2022/03/07 01:15:20;;;;;;;29.95;16.77;;;;;;;-1.39;100.00;102132.88;7390450;19;20170;-48
2022/03/07 01:17:50;;;;;;;31.92;17.13;;;;;;;-1.40;100.00;102131.03;7396677;19;20133;-50
2022/03/07 01:20:20;;;;;;;29.60;16.30;;;;;;;-1.39;100.00;102133.75;7388667;19;20130;-47
2022/03/07 01:22:50;;;;;;;30.13;17.15;;;;;;;-1.37;100.00;102136.47;7396578;19;20158;-50
2022/03/07 01:25:21;;;;;;;33.72;16.95;;;;;;;-1.39;100.00;102135.41;7393392;19;20170;-47
2022/03/07 01:27:53;;;;;;;31.25;17.08;;;;;;;-1.34;100.00;102136.78;7392969;19;20464;-48
2022/03/07 01:30:23;;;;;;;50.67;25.48;;;;;;;-1.23;100.00;102132.97;7392686;19;20134;-48
2022/03/07 01:32:54;;;;;;;53.50;24.88;;;;;;;-1.29;100.00;102135.69;7394143;19;20135;-53
2022/03/07 01:35:25;;;;;;;40.90;21.52;;;;;;;-1.50;100.00;102136.72;7389294;19;20565;-51
2022/03/07 01:37:55;;;;;;;34.92;18.95;;;;;;;-1.56;100.00;102129.34;7397147;19;20126;-53
2022/03/07 01:40:26;;;;;;;32.55;17.95;;;;;;;-1.58;100.00;102128.28;7390665;19;20210;-52
2022/03/07 01:42:58;;;;;;;34.22;19.40;;;;;;;-1.53;100.00;102123.72;7392077;19;20587;-49
2022/03/07 01:45:28;;;;;;;41.20;21.33;;;;;;;-1.65;100.00;102128.28;7388314;19;20389;-51
2022/03/07 01:47:57;;;;;;;35.60;19.88;;;;;;;-1.75;100.00;102125.47;7393011;19;20141;-48
2022/03/07 01:50:28;;;;;;;36.38;18.73;;;;;;;-1.86;100.00;102124.25;7390302;19;20661;-54
2022/03/07 01:52:58;;;;;;;33.72;18.90;;;;;;;-1.87;100.00;102105.63;7392852;19;20138;-49
2022/03/07 01:55:30;;;;;;;42.22;20.98;;;;;;;-1.85;100.00;102098.22;7388052;19;20194;-49
2022/03/07 01:58:03;;;;;;;44.90;20.52;;;;;;;-1.90;100.00;102087.53;7392201;19;20146;-49
2022/03/07 02:00:33;;;;;;;36.20;19.45;;;;;;;-1.95;100.00;102083.63;7389975;19;20262;-51
2022/03/07 02:03:03;;;;;;;51.13;24.35;;;;;;;-2.06;100.00;102070.63;7391128;19;20210;-50
2022/03/07 02:05:34;;;;;;;47.13;24.70;;;;;;;-2.08;100.00;102071.19;7388660;19;20202;-54
2022/03/07 02:08:04;;;;;;;57.65;29.23;;;;;;;-2.06;100.00;102064.66;7391068;19;20143;-49
2022/03/07 02:10:35;;;;;;;46.70;25.45;;;;;;;-2.05;100.00;102054.72;7387055;19;20190;-50
2022/03/07 02:13:12;;;;;;;43.42;21.38;;;;;;;-2.01;100.00;102044.97;7393098;19;20590;-53
2022/03/07 02:15:42;;;;;;;36.95;20.65;;;;;;;-2.06;100.00;102036.84;7388425;19;20265;-53
2022/03/07 02:18:11;;;;;;;47.63;23.30;;;;;;;-2.05;100.00;102038.66;7392782;19;21198;-48
2022/03/07 02:20:41;;;;;;;36.53;18.50;;;;;;;-2.08;100.00;102021.50;7389414;19;20200;-49
2022/03/07 02:23:13;;;;;;;39.90;19.88;;;;;;;-2.01;100.00;102019.69;7395857;19;20134;-52
2022/03/07 02:25:43;;;;;;;39.67;19.70;;;;;;;-1.99;100.00;102010.63;7385264;19;20196;-50
2022/03/07 02:28:13;;;;;;;40.60;19.25;;;;;;;-2.09;100.00;102001.09;7394117;19;20127;-49
2022/03/07 02:30:42;;;;;;;34.05;19.42;;;;;;;-2.10;100.00;102000.19;7383218;19;20186;-49
2022/03/07 02:33:14;;;;;;;36.97;21.00;;;;;;;-2.17;100.00;101995.16;7393009;19;20214;-50
2022/03/07 02:35:44;;;;;;;41.10;20.85;;;;;;;-2.23;100.00;101994.47;7388154;19;20194;-47
2022/03/07 02:38:17;;;;;;;35.90;20.50;;;;;;;-2.18;100.00;101980.72;7391242;19;20131;-49
2022/03/07 02:40:46;;;;;;;42.08;20.38;;;;;;;-2.06;100.00;101971.97;7389609;19;20219;-48
2022/03/07 02:43:19;;;;;;;40.03;20.15;;;;;;;-2.08;100.00;101978.50;7391493;19;20191;-48
2022/03/07 02:45:51;;;;;;;41.08;21.67;;;;;;;-2.19;100.00;101989.03;7384499;19;20201;-50
2022/03/07 02:48:21;;;;;;;36.35;19.02;;;;;;;-2.26;100.00;101976.44;7391203;19;20127;-48
2022/03/07 02:50:50;;;;;;;32.30;18.15;;;;;;;-2.35;100.00;101982.22;7389133;19;20194;-48
2022/03/07 02:53:22;;;;;;;38.88;19.70;;;;;;;-2.39;100.00;101984.25;7384724;19;20154;-48
2022/03/07 02:55:52;;;;;;;36.03;18.80;;;;;;;-2.37;100.00;101982.81;7389586;19;20540;-48
2022/03/07 02:58:21;;;;;;;38.83;19.33;;;;;;;-2.35;100.00;101986.41;7391243;19;20206;-47
2022/03/07 03:00:51;;;;;;;32.40;18.20;;;;;;;-2.37;100.00;101988.75;7388455;19;20529;-49
2022/03/07 03:03:21;;;;;;;32.17;18.20;;;;;;;-2.29;100.00;101989.63;7390749;19;20134;-48
2022/03/07 03:05:54;;;;;;;35.13;17.88;;;;;;;-2.27;100.00;101985.63;7381755;19;20198;-52
2022/03/07 03:08:26;;;;;;;31.83;19.27;;;;;;;-2.14;100.00;101987.03;7391426;19;20133;-48
2022/03/07 03:10:57;;;;;;;32.80;18.35;;;;;;;-2.12;100.00;101991.53;7388821;19;20622;-50
2022/03/07 03:13:27;;;;;;;31.10;17.25;;;;;;;-2.14;100.00;101998.06;7391882;19;20130;-51
2022/03/07 03:15:57;;;;;;;31.75;18.40;;;;;;;-2.15;100.00;102001.31;7388569;19;20262;-48
2022/03/07 03:18:27;;;;;;;30.17;16.58;;;;;;;-2.33;100.00;102007.69;7391302;19;20127;-48
2022/03/07 03:20:57;;;;;;;35.47;18.80;;;;;;;-2.48;100.00;102016.97;7388417;19;20186;-52
2022/03/07 03:23:29;;;;;;;32.38;17.55;;;;;;;-2.55;100.00;102017.00;7389940;19;20151;-50
2022/03/07 03:25:58;;;;;;;32.00;18.17;;;;;;;-2.54;100.00;102019.69;7387591;19;20196;-52
2022/03/07 03:28:28;;;;;;;31.25;16.58;;;;;;;-2.54;100.00;102034.88;7393126;19;20127;-51
2022/03/07 03:30:58;;;;;;;33.67;17.25;;;;;;;-2.61;100.00;102028.19;7388304;19;20646;-49
2022/03/07 03:33:27;;;;;;;30.08;16.48;;;;;;;-2.53;100.00;102045.84;7391385;19;20481;-51
2022/03/07 03:35:58;;;;;;;35.25;17.33;;;;;;;-2.53;100.00;102039.19;7387810;19;20198;-49
2022/03/07 03:38:30;;;;;;;28.65;15.00;;;;;;;-2.72;100.00;102051.34;7393900;19;20141;-48
2022/03/07 03:41:00;;;;;;;28.65;16.02;;;;;;;-2.82;100.00;102051.88;7391613;19;20191;-47
2022/03/07 03:43:29;;;;;;;32.95;16.90;;;;;;;-2.88;100.00;102056.22;7397307;19;20505;-50
2022/03/07 03:46:01;;;;;;;32.53;17.10;;;;;;;-3.03;100.00;102055.34;7394134;19;20206;-52
2022/03/07 03:48:30;;;;;;;29.27;17.20;;;;;;;-3.08;100.00;102053.91;7397689;19;20581;-48
2022/03/07 03:51:03;;;;;;;34.38;16.25;;;;;;;-3.08;100.00;102053.91;7394680;19;20725;-48
2022/03/07 03:53:35;;;;;;;31.70;17.33;;;;;;;-2.93;100.00;102052.28;7398256;19;20130;-49
2022/03/07 03:56:04;;;;;;;33.60;17.75;;;;;;;-2.47;100.00;102044.94;7394569;19;20197;-48
2022/03/07 03:58:34;;;;;;;35.85;18.75;;;;;;;-2.23;100.00;102040.00;7397539;19;20127;-48
2022/03/07 04:01:06;;;;;;;34.50;17.35;;;;;;;-2.67;100.00;102044.28;7394367;19;20196;-47
2022/03/07 04:03:35;;;;;;;35.78;18.67;;;;;;;-2.90;100.00;102042.50;7396781;19;20123;-50
2022/03/07 04:06:08;;;;;;;32.70;18.45;;;;;;;-3.11;100.00;102056.97;7394281;19;20207;-49
2022/03/07 04:08:44;;;;;;;34.33;18.40;;;;;;;-3.33;100.00;102058.56;7397342;19;20130;-48
2022/03/07 04:11:13;;;;;;;36.22;18.13;;;;;;;-3.24;100.00;102059.66;7394362;19;20198;-54
2022/03/07 04:13:42;;;;;;;36.22;18.00;;;;;;;-3.16;100.00;102069.06;7397339;19;20133;-51
2022/03/07 04:16:12;;;;;;;31.73;16.90;;;;;;;-3.05;100.00;102064.34;7393863;19;20541;-47
2022/03/07 04:18:42;;;;;;;32.17;16.70;;;;;;;-3.31;100.00;102062.19;7398509;19;20137;-48
2022/03/07 04:21:11;;;;;;;30.25;16.83;;;;;;;-3.32;100.00;102060.38;7393454;19;20194;-49
2022/03/07 04:23:43;;;;;;;33.05;16.60;;;;;;;-3.33;100.00;102062.00;7396331;19;20198;-48
2022/03/07 04:26:13;;;;;;;29.67;16.33;;;;;;;-3.19;100.00;102062.75;7393184;19;20262;-48
2022/03/07 04:28:43;;;;;;;39.45;17.65;;;;;;;-3.24;100.00;102063.81;7396518;19;20602;-51
2022/03/07 04:31:13;;;;;;;29.92;16.20;;;;;;;-3.27;100.00;102069.41;7393362;19;20192;-51
2022/03/07 04:33:42;;;;;;;29.23;16.55;;;;;;;-3.44;100.00;102065.78;7396203;19;20123;-47
2022/03/07 04:36:12;;;;;;;28.95;16.08;;;;;;;-3.59;100.00;102069.00;7395006;19;20270;-48
2022/03/07 04:38:44;;;;;;;33.97;17.10;;;;;;;-3.62;100.00;102059.44;7395940;19;20127;-48
2022/03/07 04:41:13;;;;;;;30.90;16.15;;;;;;;-3.66;100.00;102053.13;7392626;19;20190;-48
2022/03/07 04:43:43;;;;;;;36.42;16.48;;;;;;;-3.62;100.00;102050.94;7395561;19;20137;-48
2022/03/07 04:46:13;;;;;;;41.13;18.13;;;;;;;-3.66;100.00;102047.16;7392280;19;20194;-48
2022/03/07 04:48:42;;;;;;;30.65;17.35;;;;;;;-3.68;100.00;102052.03;7395875;19;20146;-49
2022/03/07 04:51:12;;;;;;;30.92;17.10;;;;;;;-3.66;100.00;102058.19;7392628;19;20196;-47
2022/03/07 04:53:44;;;;;;;29.50;16.27;;;;;;;-3.69;100.00;102052.75;7395771;19;20131;-50
2022/03/07 04:56:14;;;;;;;30.27;15.90;;;;;;;-3.64;100.00;102054.94;7391604;19;20646;-49
2022/03/07 04:58:43;;;;;;;33.17;16.67;;;;;;;-3.70;100.00;102058.50;7395496;19;20126;-49
2022/03/07 05:01:14;;;;;;;33.97;18.23;;;;;;;-3.75;100.00;102059.56;7390649;19;20193;-50
2022/03/07 05:03:44;;;;;;;29.88;17.02;;;;;;;-3.79;100.00;102059.94;7395153;19;20141;-49
2022/03/07 05:06:14;;;;;;;34.13;17.75;;;;;;;-3.84;100.00;102051.81;7392211;19;20205;-48
2022/03/07 05:08:46;;;;;;;26.73;15.68;;;;;;;-3.85;100.00;102074.34;7395478;19;20127;-47
2022/03/07 05:11:15;;;;;;;35.15;18.52;;;;;;;-1.09;100.00;102031.50;7392468;19;20190;-49
2022/03/07 05:13:45;;;;;;;80.80;37.67;;;;;;;0.03;100.00;102024.66;7394960;19;20131;-48
2022/03/07 05:16:14;;;;;;;63.15;30.10;;;;;;;-0.52;100.00;102053.56;7392979;19;20182;-47
2022/03/07 05:18:44;;;;;;;55.55;27.85;;;;;;;-0.23;100.00;102071.00;7394850;19;20157;-49
2022/03/07 05:21:13;;;;;;;53.92;25.85;;;;;;;0.74;100.00;102078.41;7392049;19;20204;-48
2022/03/07 05:23:45;;;;;;;46.00;21.60;;;;;;;0.13;100.00;102097.59;7394592;19;20488;-49
2022/03/07 05:26:15;;;;;;;30.52;17.85;;;;;;;-0.03;100.00;102110.28;7388696;19;20194;-49
2022/03/07 05:28:44;;;;;;;32.38;16.15;;;;;;;-0.14;100.00;102116.78;7394358;19;20123;-48
2022/03/07 05:31:15;;;;;;;27.42;14.63;;;;;;;-0.08;100.00;102129.19;7391297;19;20198;-47
2022/03/07 05:33:44;;;;;;;23.42;14.30;;;;;;;-0.33;100.00;102151.94;7394410;19;20127;-49
2022/03/07 05:36:14;;;;;;;22.10;13.25;;;;;;;-0.35;100.00;102166.09;7386233;19;20194;-50
2022/03/07 05:38:46;;;;;;;24.45;13.98;;;;;;;-0.34;100.00;102183.09;7394156;19;20130;-48
2022/03/07 05:41:16;;;;;;;22.90;13.38;;;;;;;-0.48;100.00;102190.13;7391417;19;20193;-48
2022/03/07 05:43:45;;;;;;;23.20;13.90;;;;;;;-0.41;100.00;102191.72;7394060;19;20126;-53
2022/03/07 05:46:15;;;;;;;26.23;12.57;;;;;;;-0.52;100.00;102195.56;7390895;19;20186;-49
2022/03/07 05:48:45;;;;;;;21.80;12.95;;;;;;;-0.51;100.00;102204.97;7393992;19;20136;-50
2022/03/07 05:51:16;;;;;;;21.13;12.35;;;;;;;-0.47;100.00;102207.13;7389405;19;20190;-47
2022/03/07 05:53:48;;;;;;;23.00;12.55;;;;;;;-0.34;100.00;102203.41;7393822;19;20594;-49
2022/03/07 05:56:17;;;;;;;21.50;11.48;;;;;;;-0.48;100.00;102200.25;7389103;19;20194;-49
2022/03/07 05:58:47;;;;;;;19.83;12.32;;;;;;;-0.18;100.00;102205.97;7393451;19;20123;-47
2022/03/07 06:01:17;;;;;;;20.77;12.27;;;;;;;-0.26;100.00;102209.31;7388127;19;20674;-48
2022/03/07 06:03:46;;;;;;;20.38;11.80;;;;;;;-0.14;100.00;102214.06;7393379;19;20174;-47
2022/03/07 06:06:16;;;;;;;20.75;12.20;;;;;;;-0.59;100.00;102211.78;7389682;19;20258;-52
2022/03/07 06:08:48;;;;;;;31.05;16.35;;;;;;;-0.42;100.00;102215.25;7393407;19;20135;-48
2022/03/07 06:11:18;;;;;;;37.75;19.33;;;;;;;-0.05;100.00;102223.44;7390745;19;20254;-47
2022/03/07 06:13:47;;;;;;;54.00;27.10;;;;;;;-0.10;100.00;102222.03;7393186;19;20170;-50
2022/03/07 06:16:17;;;;;;;51.83;24.40;;;;;;;-0.71;100.00;102229.03;7390318;19;20201;-49
2022/03/07 06:18:46;;;;;;;53.92;26.95;;;;;;;-1.31;100.00;102232.47;7394375;19;20134;-47
2022/03/07 06:21:16;;;;;;;33.30;18.25;;;;;;;-1.55;100.00;102229.88;7389284;19;20201;-51
2022/03/07 06:23:48;;;;;;;28.42;14.23;;;;;;;-1.97;100.00;102230.19;7397252;19;20135;-49
2022/03/07 06:26:17;;;;;;;24.10;14.30;;;;;;;-2.34;100.00;102228.41;7389331;19;20194;-48
2022/03/07 06:28:47;;;;;;;24.00;12.57;;;;;;;-2.56;100.00;102222.44;7393635;19;20131;-50
2022/03/07 06:31:16;;;;;;;22.98;13.00;;;;;;;-2.80;100.00;102214.69;7389502;19;20196;-50
2022/03/07 06:33:46;;;;;;;23.45;13.02;;;;;;;-2.82;100.00;102213.56;7392377;19;20127;-51
2022/03/07 06:36:16;;;;;;;25.83;13.52;;;;;;;-2.87;100.00;102215.56;7388898;19;20194;-50
2022/03/07 06:38:48;;;;;;;25.25;13.52;;;;;;;-2.95;100.00;102205.25;7394816;19;20127;-49
2022/03/07 06:41:17;;;;;;;21.70;12.95;;;;;;;-2.96;100.00;102204.38;7389490;19;20653;-51
2022/03/07 06:43:47;;;;;;;26.42;14.80;;;;;;;-2.99;100.00;102209.03;7392133;19;20171;-51
2022/03/07 06:46:16;;;;;;;27.65;15.00;;;;;;;-2.98;100.00;102205.78;7387738;19;20201;-47
2022/03/07 06:48:46;;;;;;;30.35;16.27;;;;;;;-2.99;100.00;102196.41;7394568;19;20148;-50
2022/03/07 06:51:17;;;;;;;31.60;16.95;;;;;;;-3.01;100.00;102196.25;7389653;19;20190;-50
2022/03/07 06:53:49;;;;;;;33.70;17.83;;;;;;;-3.05;100.00;102195.69;7393699;19;20515;-48
2022/03/07 06:56:19;;;;;;;38.95;18.30;;;;;;;-3.06;100.00;102191.34;7390556;19;20258;-49
2022/03/07 06:58:49;;;;;;;29.42;16.30;;;;;;;-3.08;100.00;102192.81;7392587;19;20131;-52
2022/03/07 07:01:20;;;;;;;31.90;17.58;;;;;;;-3.08;100.00;102187.75;7385372;19;20194;-54
2022/03/07 07:03:50;;;;;;;28.48;16.00;;;;;;;-2.94;100.00;102179.28;7389871;19;20179;-51
2022/03/07 07:06:19;;;;;;;60.05;27.80;;;;;;;-0.59;100.00;102166.13;7384538;19;20194;-51
2022/03/07 07:08:52;;;;;;;82.28;37.08;;;;;;;0.33;100.00;102163.16;7388654;19;20131;-48
2022/03/07 07:11:21;;;;;;;62.83;29.55;;;;;;;0.26;100.00;102166.69;7386479;19;20275;-52
2022/03/07 07:13:57;;;;;;;64.05;30.25;;;;;;;-0.16;100.00;102174.03;7397244;19;20167;-54
2022/03/07 07:16:29;;;;;;;42.05;22.13;;;;;;;0.63;100.00;102178.94;7393566;19;20207;-52
2022/03/07 07:18:58;;;;;;;25.38;15.02;;;;;;;-0.39;100.00;102185.16;7396039;19;20303;-50
2022/03/07 07:21:28;;;;;;;29.33;14.13;;;;;;;-0.30;100.00;102182.72;7393516;19;20187;-50
2022/03/07 07:24:00;;;;;;;33.30;14.75;;;;;;;-1.01;100.00;102194.50;7396584;19;20163;-50
2022/03/07 07:26:29;;;;;;;28.98;14.75;;;;;;;-1.11;100.00;102194.22;7394095;19;20201;-47
2022/03/07 07:29:06;;;;;;;26.27;14.75;;;;;;;-1.12;100.00;102197.47;7397290;19;20135;-48
2022/03/07 07:31:35;;;;;;;26.95;15.18;;;;;;;-1.05;100.00;102197.44;7394866;19;20212;-48
2022/03/07 07:34:05;;;;;;;27.73;16.60;;;;;;;-1.07;100.00;102203.06;7396543;19;20181;-47
2022/03/07 07:36:34;;;;;;;28.83;15.73;;;;;;;-1.00;100.00;102203.00;7397099;19;20538;-48
2022/03/07 07:39:06;;;;;;;30.60;16.27;;;;;;;-0.92;100.00;102203.88;7396969;19;20191;-49
2022/03/07 07:41:36;;;;;;;28.98;15.43;;;;;;;-0.89;100.00;102206.72;7394305;19;20191;-48
2022/03/07 07:44:06;;;;;;;67.82;30.05;;;;;;;-0.83;100.00;102199.81;7397034;19;20158;-49
2022/03/07 07:46:35;;;;;;;30.30;15.75;;;;;;;-1.05;100.00;102197.44;7394162;19;20197;-52
2022/03/07 07:49:05;;;;;;;44.05;16.05;;;;;;;-1.12;100.00;102208.50;7397230;19;20460;-49
2022/03/07 07:51:35;;;;;;;28.38;14.30;;;;;;;-1.05;100.00;102202.50;7393835;19;20684;-51
2022/03/07 07:54:07;;;;;;;28.83;15.70;;;;;;;-1.02;100.00;102207.00;7392717;19;20637;-55
2022/03/07 07:56:37;;;;;;;24.77;13.80;;;;;;;-0.85;100.00;102206.34;7396234;19;20191;-49
2022/03/07 07:59:06;;;;;;;29.42;16.55;;;;;;;-0.77;100.00;102208.09;7398815;19;20488;-50
2022/03/07 08:01:36;;;;;;;26.92;14.77;;;;;;;-0.65;100.00;102206.03;7394119;19;20270;-47
2022/03/07 08:04:06;;;;;;;22.27;12.60;;;;;;;-0.55;100.00;102207.94;7399633;19;20513;-47
2022/03/07 08:06:36;;;;;;;20.38;11.63;;;;;;;-0.46;100.00;102218.19;7392015;19;20215;-48
2022/03/07 08:09:08;;;;;;;21.75;11.63;;;;;;;-0.38;100.00;102211.41;7396003;19;20127;-48
2022/03/07 08:11:38;;;;;;;20.63;10.75;;;;;;;-0.40;100.00;102213.78;7395181;19;20200;-48
2022/03/07 08:14:07;;;;;;;23.77;12.07;;;;;;;-0.27;100.00;102210.94;7397072;19;20163;-49
2022/03/07 08:16:37;;;;;;;17.20;11.60;;;;;;;-0.17;100.00;102213.75;7390311;19;20190;-48
2022/03/07 08:19:06;;;;;;;20.05;11.45;;;;;;;-0.02;100.00;102205.97;7396240;19;20497;-48
2022/03/07 08:21:36;;;;;;;16.83;11.05;;;;;;;0.17;100.00;102202.88;7392990;19;20186;-48
2022/03/07 08:24:08;;;;;;;28.02;11.23;;;;;;;0.25;100.00;102197.91;7393916;19;20178;-51
2022/03/07 08:26:38;;;;;;;22.70;11.63;;;;;;;0.37;100.00;102197.41;7391819;19;20190;-48
2022/03/07 08:29:08;;;;;;;20.27;11.65;;;;;;;0.52;100.00;102204.09;7398014;19;20590;-51
2022/03/07 08:31:37;;;;;;;19.10;10.93;;;;;;;0.56;100.00;102215.47;7395384;19;20210;-52
2022/03/07 08:34:07;;;;;;;15.57;9.85;;;;;;;0.71;100.00;102212.78;7395726;19;20166;-50
2022/03/07 08:36:37;;;;;;;17.27;9.55;;;;;;;0.80;100.00;102218.81;7393329;19;20186;-48
2022/03/07 08:39:09;;;;;;;17.25;9.88;;;;;;;0.83;100.00;102219.13;7399164;19;20145;-49
2022/03/07 08:41:38;;;;;;;17.38;9.48;;;;;;;0.94;100.00;102225.34;7391406;19;20205;-49
2022/03/07 08:44:08;;;;;;;21.35;9.90;;;;;;;1.08;100.00;102226.78;7395517;19;20505;-48
2022/03/07 08:46:39;;;;;;;14.35;9.05;;;;;;;1.17;100.00;102225.16;7390149;19;20207;-48
2022/03/07 08:49:08;;;;;;;14.95;8.88;;;;;;;1.24;100.00;102228.34;7395200;19;20644;-48
2022/03/07 08:51:39;;;;;;;11.93;6.95;;;;;;;1.35;100.00;102238.00;7392049;19;20194;-51
2022/03/07 08:54:11;;;;;;;13.00;7.03;;;;;;;1.47;100.00;102223.97;7395148;19;20221;-49
2022/03/07 08:56:40;;;;;;;11.17;7.23;;;;;;;1.63;100.00;102228.06;7384380;19;20186;-48
2022/03/07 08:59:10;;;;;;;10.43;7.10;;;;;;;1.70;100.00;102235.59;7399196;19;20428;-51
2022/03/07 09:01:40;;;;;;;10.93;6.40;;;;;;;1.79;100.00;102237.28;7392000;19;20408;-48
2022/03/07 09:04:09;;;;;;;28.65;13.80;;;;;;;1.95;100.00;102238.06;7398080;19;20971;-47
2022/03/07 09:06:39;;;;;;;32.30;15.80;;;;;;;2.31;100.00;102230.50;7391131;19;20660;-48
2022/03/07 09:09:11;;;;;;;12.45;6.45;;;;;;;2.35;100.00;102237.72;7394627;19;20387;-49
2022/03/07 09:11:59;;;;;;;13.97;6.00;;;;;;;2.56;100.00;102239.81;7391988;19;20281;-51
2022/03/07 09:14:29;;;;;;;8.83;5.30;;;;;;;2.64;100.00;102248.22;7393845;19;20462;-47
2022/03/07 09:16:59;;;;;;;12.23;6.53;;;;;;;2.80;100.00;102250.59;7392058;19;20452;-50
2022/03/07 09:19:30;;;;;;;11.40;6.13;;;;;;;2.89;100.00;102247.13;7394468;19;20461;-49
2022/03/07 09:21:59;;;;;;;6.83;4.50;;;;;;;3.00;100.00;102250.72;7388638;19;20718;-53
2022/03/07 09:24:31;;;;;;;5.70;3.23;;;;;;;3.12;100.00;102258.66;7393737;19;20944;-47
2022/03/07 09:27:01;;;;;;;6.17;3.30;;;;;;;3.20;100.00;102262.84;7390426;19;20406;-51
2022/03/07 09:29:30;;;;;;;4.37;2.83;;;;;;;3.33;100.00;102267.47;7394115;19;20394;-48
2022/03/07 09:32:03;;;;;;;4.63;2.73;;;;;;;3.42;100.00;102276.00;7391584;19;20770;-52
2022/03/07 09:34:32;;;;;;;17.30;6.93;;;;;;;3.45;100.00;102283.06;7395577;19;20422;-51
2022/03/07 09:37:04;;;;;;;5.83;2.60;;;;;;;3.41;100.00;102298.81;7393498;19;20423;-51
2022/03/07 09:39:37;;;;;;;7.73;3.43;;;;;;;3.45;100.00;102293.25;7397993;19;20897;-51
2022/03/07 09:42:06;;;;;;;17.13;7.97;;;;;;;3.42;100.00;102288.75;7394032;19;20443;-48
2022/03/07 09:44:36;;;;;;;10.60;4.10;;;;;;;3.50;100.00;102294.59;7396307;19;20439;-50
2022/03/07 09:47:07;;;;;;;9.53;3.47;;;;;;;3.62;100.00;102295.78;7395083;19;20435;-52
2022/03/07 09:49:36;;;;;;;7.20;3.43;;;;;;;3.71;100.00;102290.63;7397176;19;20427;-51
2022/03/07 09:52:06;;;;;;;8.30;3.50;;;;;;;3.84;100.00;102292.66;7393490;19;20526;-48
2022/03/07 09:54:39;;;;;;;6.63;3.37;;;;;;;3.98;100.00;102293.06;7396526;19;20416;-54
2022/03/07 09:57:08;;;;;;;6.50;3.40;;;;;;;4.12;100.00;102289.25;7393218;19;20451;-53
2022/03/07 09:59:38;;;;;;;6.07;3.27;;;;;;;4.09;100.00;102294.97;7396850;19;20388;-47
2022/03/07 10:02:12;;;;;;;9.10;3.73;;;;;;;4.25;100.00;102304.06;7389013;19;20467;-50
2022/03/07 10:04:43;;;;;;;8.30;3.40;;;;;;;4.41;100.00;102302.13;7395863;19;20423;-49
2022/03/07 10:07:13;;;;;;;6.30;2.37;;;;;;;4.56;100.00;102306.88;7392221;19;21304;-50
2022/03/07 10:09:46;;;;;;;6.93;4.10;;;;;;;4.69;100.00;102307.22;7396364;19;20403;-48
2022/03/07 10:12:16;;;;;;;5.57;3.30;;;;;;;4.77;100.00;102309.56;7388775;19;20494;-48
2022/03/07 10:14:47;;;;;;;6.20;2.67;;;;;;;4.68;100.00;102310.50;7391838;19;20412;-48
2022/03/07 10:17:20;;;;;;;7.67;3.27;;;;;;;4.73;100.00;102313.50;7390410;19;20419;-48
2022/03/07 10:19:51;;;;;;;7.03;3.10;;;;;;;4.69;100.00;102320.00;7392672;19;20745;-49
2022/03/07 10:22:22;;;;;;;22.63;9.53;;;;;;;4.61;100.00;102318.38;7382318;19;20411;-47
2022/03/07 10:25:02;;;;;;;7.63;3.50;;;;;;;4.71;100.00;102325.25;7391553;19;20425;-48
2022/03/07 10:27:34;;;;;;;5.00;2.37;;;;;;;4.96;100.00;102318.13;7387615;19;20798;-49
2022/03/07 10:30:05;;;;;;;7.00;3.37;;;;;;;5.00;100.00;102325.34;7391583;19;20901;-49
2022/03/07 10:32:34;;;;;;;10.00;2.73;;;;;;;5.23;100.00;102321.34;7389788;19;20909;-50
2022/03/07 10:35:04;;;;;;;5.27;2.20;;;;;;;5.46;100.00;102322.50;7392367;19;20405;-48
2022/03/07 10:37:35;;;;;;;5.40;2.57;;;;;;;5.77;100.00;102330.28;7391803;19;20431;-50
2022/03/07 10:40:11;;;;;;;25.00;11.57;;;;;;;6.27;100.00;102328.47;7391655;19;20351;-49
2022/03/07 10:42:47;;;;;;;77.10;35.23;;;;;;;6.94;100.00;102331.38;7388837;19;20443;-48
2022/03/07 10:45:17;;;;;;;38.00;16.50;;;;;;;7.09;100.00;102324.97;7394328;19;20426;-47
2022/03/07 10:47:52;;;;;;;21.53;10.63;;;;;;;6.53;100.00;102330.69;7396112;19;20544;-50
2022/03/07 10:50:23;;;;;;;62.97;33.77;;;;;;;7.26;100.00;102335.66;7400855;19;20463;-49
2022/03/07 10:52:53;;;;;;;9.20;5.27;;;;;;;7.08;100.00;102330.84;7395480;19;20941;-48
2022/03/07 10:55:30;;;;;;;24.07;13.50;;;;;;;6.89;100.00;102329.34;7400690;19;20416;-48
2022/03/07 10:58:11;;;;;;;10.43;3.47;;;;;;;6.55;100.00;102324.00;7393251;19;20437;-50
2022/03/07 11:00:50;;;;;;;17.13;9.70;;;;;;;6.57;100.00;102321.56;7399327;19;20396;-51
2022/03/07 11:03:22;;;;;;;7.90;3.97;;;;;;;6.37;100.00;102327.59;7396627;19;20437;-51
2022/03/07 11:05:53;;;;;;;12.47;6.17;;;;;;;6.34;100.00;102321.44;7399178;19;20377;-48
2022/03/07 11:08:23;;;;;;;6.37;3.67;;;;;;;6.40;100.00;102321.03;7393047;19;20433;-49
2022/03/07 11:10:58;;;;;;;8.73;3.90;;;;;;;6.41;100.00;102321.97;7397981;19;20741;-50
2022/03/07 11:13:30;;;;;;;12.90;7.10;;;;;;;6.51;100.00;102314.25;7395678;19;20419;-53
2022/03/07 11:16:02;;;;;;;11.20;5.80;;;;;;;6.52;100.00;102313.50;7398630;19;20448;-49
2022/03/07 11:18:33;;;;;;;7.93;3.40;;;;;;;6.54;100.00;102311.94;7394469;19;20491;-49
2022/03/07 11:21:04;;;;;;;5.77;3.03;;;;;;;6.59;100.00;102308.09;7398694;19;20392;-50
2022/03/07 11:23:33;;;;;;;7.93;4.07;;;;;;;6.46;100.00;102308.72;7394508;19;20766;-51